sensor_id;sensor_type;location;lat;lon;timestamp;P1;durP1;ratioP1;P2;durP2;ratioP2
71125;SDS011;58785;55.566;38.058;2022-10-04T00:01:31;8.65;;;1.90;;
71125;SDS011;58785;55.566;38.058;2022-10-04T00:06:46;5.40;;;2.00;;
71125;SDS011;58785;55.566;38.058;2022-10-04T00:09:20;5.70;;;1.85;;
71125;SDS011;58785;55.566;38.058;2022-10-04T00:11:53;4.40;;;1.50;;
71125;SDS011;58785;55.566;38.058;2022-10-04T00:14:25;6.70;;;2.28;;
71125;SDS011;58785;55.566;38.058;2022-10-04T00:16:52;5.25;;;2.00;;
71125;SDS011;58785;55.566;38.058;2022-10-04T00:29:34;7.38;;;2.67;;
71125;SDS011;58785;55.566;38.058;2022-10-04T00:34:47;6.57;;;2.50;;
71125;SDS011;58785;55.566;38.058;2022-10-04T00:37:15;5.75;;;2.00;;
71125;SDS011;58785;55.566;38.058;2022-10-04T00:39:59;6.63;;;2.20;;
71125;SDS011;58785;55.566;38.058;2022-10-04T00:45:12;7.67;;;2.07;;
71125;SDS011;58785;55.566;38.058;2022-10-04T00:53:01;4.80;;;1.90;;
71125;SDS011;58785;55.566;38.058;2022-10-04T00:55:38;5.68;;;2.00;;
71125;SDS011;58785;55.566;38.058;2022-10-04T00:58:16;6.03;;;1.40;;
71125;SDS011;58785;55.566;38.058;2022-10-04T01:00:46;5.47;;;1.88;;
71125;SDS011;58785;55.566;38.058;2022-10-04T01:03:26;7.50;;;2.08;;
71125;SDS011;58785;55.566;38.058;2022-10-04T01:05:56;4.97;;;1.83;;
71125;SDS011;58785;55.566;38.058;2022-10-04T01:08:27;5.43;;;2.17;;
71125;SDS011;58785;55.566;38.058;2022-10-04T01:11:00;8.13;;;2.30;;
71125;SDS011;58785;55.566;38.058;2022-10-04T01:14:33;7.35;;;2.53;;
71125;SDS011;58785;55.566;38.058;2022-10-04T01:16:39;6.35;;;1.98;;
71125;SDS011;58785;55.566;38.058;2022-10-04T01:21:56;5.90;;;2.03;;
71125;SDS011;58785;55.566;38.058;2022-10-04T01:24:29;6.93;;;2.30;;
71125;SDS011;58785;55.566;38.058;2022-10-04T01:26:59;5.47;;;2.28;;
71125;SDS011;58785;55.566;38.058;2022-10-04T01:29:26;7.30;;;2.13;;
71125;SDS011;58785;55.566;38.058;2022-10-04T01:32:00;6.25;;;1.90;;
71125;SDS011;58785;55.566;38.058;2022-10-04T01:34:27;7.00;;;2.28;;
71125;SDS011;58785;55.566;38.058;2022-10-04T01:36:55;5.47;;;2.00;;
71125;SDS011;58785;55.566;38.058;2022-10-04T01:39:23;7.15;;;2.28;;
71125;SDS011;58785;55.566;38.058;2022-10-04T01:44:21;5.45;;;2.08;;
71125;SDS011;58785;55.566;38.058;2022-10-04T01:46:52;5.60;;;2.33;;
71125;SDS011;58785;55.566;38.058;2022-10-04T01:49:25;5.43;;;2.30;;
71125;SDS011;58785;55.566;38.058;2022-10-04T01:51:55;4.85;;;1.92;;
71125;SDS011;58785;55.566;38.058;2022-10-04T01:54:31;5.38;;;2.33;;
71125;SDS011;58785;55.566;38.058;2022-10-04T01:59:50;4.97;;;1.88;;
71125;SDS011;58785;55.566;38.058;2022-10-04T02:02:36;8.67;;;2.10;;
71125;SDS011;58785;55.566;38.058;2022-10-04T02:05:20;6.70;;;2.45;;
71125;SDS011;58785;55.566;38.058;2022-10-04T02:08:07;6.47;;;2.30;;
71125;SDS011;58785;55.566;38.058;2022-10-04T02:10:36;6.78;;;2.40;;
71125;SDS011;58785;55.566;38.058;2022-10-04T02:13:06;4.68;;;1.70;;
71125;SDS011;58785;55.566;38.058;2022-10-04T02:15:34;5.23;;;1.90;;
71125;SDS011;58785;55.566;38.058;2022-10-04T02:18:08;6.43;;;2.10;;
71125;SDS011;58785;55.566;38.058;2022-10-04T02:20:37;7.68;;;2.42;;
71125;SDS011;58785;55.566;38.058;2022-10-04T02:23:04;6.05;;;2.03;;
71125;SDS011;58785;55.566;38.058;2022-10-04T02:25:30;6.68;;;2.00;;
71125;SDS011;58785;55.566;38.058;2022-10-04T02:27:56;10.63;;;2.00;;
71125;SDS011;58785;55.566;38.058;2022-10-04T02:30:22;7.63;;;2.33;;
71125;SDS011;58785;55.566;38.058;2022-10-04T02:32:50;5.28;;;1.80;;
71125;SDS011;58785;55.566;38.058;2022-10-04T02:35:42;6.00;;;2.20;;
71125;SDS011;58785;55.566;38.058;2022-10-04T02:38:16;6.03;;;1.97;;
71125;SDS011;58785;55.566;38.058;2022-10-04T02:46:27;5.85;;;2.17;;
71125;SDS011;58785;55.566;38.058;2022-10-04T02:49:05;8.10;;;2.00;;
71125;SDS011;58785;55.566;38.058;2022-10-04T02:51:43;6.00;;;2.13;;
71125;SDS011;58785;55.566;38.058;2022-10-04T02:57:02;7.35;;;2.30;;
71125;SDS011;58785;55.566;38.058;2022-10-04T02:59:29;7.20;;;2.40;;
71125;SDS011;58785;55.566;38.058;2022-10-04T03:01:57;7.07;;;2.42;;
71125;SDS011;58785;55.566;38.058;2022-10-04T03:04:37;7.10;;;2.50;;
71125;SDS011;58785;55.566;38.058;2022-10-04T03:07:05;6.82;;;2.30;;
71125;SDS011;58785;55.566;38.058;2022-10-04T03:09:33;7.10;;;2.50;;
71125;SDS011;58785;55.566;38.058;2022-10-04T03:12:00;7.15;;;2.53;;
71125;SDS011;58785;55.566;38.058;2022-10-04T03:14:29;5.43;;;2.17;;
71125;SDS011;58785;55.566;38.058;2022-10-04T03:16:57;6.13;;;2.17;;
71125;SDS011;58785;55.566;38.058;2022-10-04T03:19:25;7.95;;;2.63;;
71125;SDS011;58785;55.566;38.058;2022-10-04T03:21:54;8.35;;;2.45;;
71125;SDS011;58785;55.566;38.058;2022-10-04T03:24:27;10.63;;;2.90;;
71125;SDS011;58785;55.566;38.058;2022-10-04T03:26:57;9.52;;;2.45;;
71125;SDS011;58785;55.566;38.058;2022-10-04T03:29:27;7.37;;;2.60;;
71125;SDS011;58785;55.566;38.058;2022-10-04T03:31:56;9.07;;;2.42;;
71125;SDS011;58785;55.566;38.058;2022-10-04T03:34:23;8.43;;;2.65;;
71125;SDS011;58785;55.566;38.058;2022-10-04T03:36:52;8.25;;;2.58;;
71125;SDS011;58785;55.566;38.058;2022-10-04T03:39:26;6.45;;;2.85;;
71125;SDS011;58785;55.566;38.058;2022-10-04T03:41:56;7.90;;;3.23;;
71125;SDS011;58785;55.566;38.058;2022-10-04T03:44:23;7.32;;;2.60;;
71125;SDS011;58785;55.566;38.058;2022-10-04T03:46:50;6.65;;;2.60;;
71125;SDS011;58785;55.566;38.058;2022-10-04T03:49:28;10.47;;;2.97;;
71125;SDS011;58785;55.566;38.058;2022-10-04T03:52:01;7.13;;;2.65;;
71125;SDS011;58785;55.566;38.058;2022-10-04T03:54:28;7.80;;;2.90;;
71125;SDS011;58785;55.566;38.058;2022-10-04T03:56:56;8.93;;;3.10;;
71125;SDS011;58785;55.566;38.058;2022-10-04T03:59:23;9.23;;;2.67;;
71125;SDS011;58785;55.566;38.058;2022-10-04T04:09:42;7.28;;;2.95;;
71125;SDS011;58785;55.566;38.058;2022-10-04T04:12:12;7.05;;;2.85;;
71125;SDS011;58785;55.566;38.058;2022-10-04T04:14:42;9.13;;;3.10;;
71125;SDS011;58785;55.566;38.058;2022-10-04T04:17:16;7.18;;;2.70;;
71125;SDS011;58785;55.566;38.058;2022-10-04T04:19:43;6.80;;;2.58;;
71125;SDS011;58785;55.566;38.058;2022-10-04T04:22:13;5.43;;;2.50;;
71125;SDS011;58785;55.566;38.058;2022-10-04T04:24:41;6.93;;;2.50;;
71125;SDS011;58785;55.566;38.058;2022-10-04T04:27:08;5.60;;;2.53;;
71125;SDS011;58785;55.566;38.058;2022-10-04T04:29:38;8.38;;;3.20;;
71125;SDS011;58785;55.566;38.058;2022-10-04T04:34:53;7.05;;;2.72;;
71125;SDS011;58785;55.566;38.058;2022-10-04T04:37:23;7.45;;;2.70;;
71125;SDS011;58785;55.566;38.058;2022-10-04T04:39:49;9.67;;;2.77;;
71125;SDS011;58785;55.566;38.058;2022-10-04T04:42:32;7.88;;;3.05;;
71125;SDS011;58785;55.566;38.058;2022-10-04T04:45:12;7.25;;;2.95;;
71125;SDS011;58785;55.566;38.058;2022-10-04T04:47:42;6.90;;;3.03;;
71125;SDS011;58785;55.566;38.058;2022-10-04T04:50:12;9.60;;;3.17;;
71125;SDS011;58785;55.566;38.058;2022-10-04T04:52:42;6.90;;;2.75;;
71125;SDS011;58785;55.566;38.058;2022-10-04T04:55:18;7.15;;;2.88;;
71125;SDS011;58785;55.566;38.058;2022-10-04T04:57:47;6.40;;;2.45;;
71125;SDS011;58785;55.566;38.058;2022-10-04T05:00:16;6.80;;;2.80;;
71125;SDS011;58785;55.566;38.058;2022-10-04T05:02:54;6.40;;;2.73;;
71125;SDS011;58785;55.566;38.058;2022-10-04T05:05:34;8.32;;;3.60;;
71125;SDS011;58785;55.566;38.058;2022-10-04T05:10:35;7.85;;;2.70;;
71125;SDS011;58785;55.566;38.058;2022-10-04T05:13:02;8.98;;;2.88;;
71125;SDS011;58785;55.566;38.058;2022-10-04T05:15:36;6.50;;;2.83;;
71125;SDS011;58785;55.566;38.058;2022-10-04T05:21:04;8.35;;;2.83;;
71125;SDS011;58785;55.566;38.058;2022-10-04T05:23:37;7.38;;;3.08;;
71125;SDS011;58785;55.566;38.058;2022-10-04T05:26:03;6.95;;;2.67;;
71125;SDS011;58785;55.566;38.058;2022-10-04T05:28:35;6.97;;;2.70;;
71125;SDS011;58785;55.566;38.058;2022-10-04T05:33:38;7.53;;;2.65;;
71125;SDS011;58785;55.566;38.058;2022-10-04T05:41:37;8.32;;;2.70;;
71125;SDS011;58785;55.566;38.058;2022-10-04T05:46:42;7.78;;;3.22;;
71125;SDS011;58785;55.566;38.058;2022-10-04T05:49:12;7.93;;;2.60;;
71125;SDS011;58785;55.566;38.058;2022-10-04T05:51:51;10.02;;;2.63;;
71125;SDS011;58785;55.566;38.058;2022-10-04T05:54:23;7.38;;;2.53;;
71125;SDS011;58785;55.566;38.058;2022-10-04T05:57:04;7.45;;;2.45;;
71125;SDS011;58785;55.566;38.058;2022-10-04T06:15:39;7.57;;;2.20;;
71125;SDS011;58785;55.566;38.058;2022-10-04T06:18:28;10.20;;;3.28;;
71125;SDS011;58785;55.566;38.058;2022-10-04T06:23:43;5.07;;;1.85;;
71125;SDS011;58785;55.566;38.058;2022-10-04T06:26:23;11.27;;;2.88;;
71125;SDS011;58785;55.566;38.058;2022-10-04T06:28:58;6.80;;;2.43;;
71125;SDS011;58785;55.566;38.058;2022-10-04T07:00:22;6.13;;;2.30;;
71125;SDS011;58785;55.566;38.058;2022-10-04T07:05:41;5.97;;;2.10;;
71125;SDS011;58785;55.566;38.058;2022-10-04T07:08:20;7.72;;;2.50;;
71125;SDS011;58785;55.566;38.058;2022-10-04T07:13:58;7.32;;;1.83;;
71125;SDS011;58785;55.566;38.058;2022-10-04T07:16:33;7.27;;;2.07;;
71125;SDS011;58785;55.566;38.058;2022-10-04T07:24:17;6.45;;;2.20;;
71125;SDS011;58785;55.566;38.058;2022-10-04T07:26:49;8.00;;;2.72;;
71125;SDS011;58785;55.566;38.058;2022-10-04T07:29:18;8.90;;;2.47;;
71125;SDS011;58785;55.566;38.058;2022-10-04T07:31:52;5.68;;;2.35;;
71125;SDS011;58785;55.566;38.058;2022-10-04T07:34:37;6.18;;;2.25;;
71125;SDS011;58785;55.566;38.058;2022-10-04T07:37:11;7.78;;;2.05;;
71125;SDS011;58785;55.566;38.058;2022-10-04T07:45:59;5.30;;;2.13;;
71125;SDS011;58785;55.566;38.058;2022-10-04T07:48:26;6.72;;;2.17;;
71125;SDS011;58785;55.566;38.058;2022-10-04T07:56:19;6.88;;;2.10;;
71125;SDS011;58785;55.566;38.058;2022-10-04T08:10:25;5.07;;;2.03;;
71125;SDS011;58785;55.566;38.058;2022-10-04T08:13:18;5.65;;;2.28;;
71125;SDS011;58785;55.566;38.058;2022-10-04T08:15:52;5.03;;;2.10;;
71125;SDS011;58785;55.566;38.058;2022-10-04T08:18:39;6.20;;;2.17;;
71125;SDS011;58785;55.566;38.058;2022-10-04T08:21:07;4.82;;;2.08;;
71125;SDS011;58785;55.566;38.058;2022-10-04T08:23:43;5.03;;;1.83;;
71125;SDS011;58785;55.566;38.058;2022-10-04T08:38:02;7.53;;;2.03;;
71125;SDS011;58785;55.566;38.058;2022-10-04T08:43:36;8.52;;;2.47;;
71125;SDS011;58785;55.566;38.058;2022-10-04T08:58:11;6.97;;;2.10;;
71125;SDS011;58785;55.566;38.058;2022-10-04T09:08:26;5.38;;;1.95;;
71125;SDS011;58785;55.566;38.058;2022-10-04T09:11:24;4.90;;;1.85;;
71125;SDS011;58785;55.566;38.058;2022-10-04T09:16:30;6.45;;;2.30;;
71125;SDS011;58785;55.566;38.058;2022-10-04T09:26:59;7.70;;;1.80;;
71125;SDS011;58785;55.566;38.058;2022-10-04T09:32:21;5.57;;;1.77;;
71125;SDS011;58785;55.566;38.058;2022-10-04T09:35:10;5.80;;;1.90;;
71125;SDS011;58785;55.566;38.058;2022-10-04T09:45:49;6.60;;;1.85;;
71125;SDS011;58785;55.566;38.058;2022-10-04T09:48:40;4.93;;;1.83;;
71125;SDS011;58785;55.566;38.058;2022-10-04T09:57:07;5.95;;;1.77;;
71125;SDS011;58785;55.566;38.058;2022-10-04T10:07:57;5.82;;;1.95;;
71125;SDS011;58785;55.566;38.058;2022-10-04T10:16:31;6.37;;;2.00;;
71125;SDS011;58785;55.566;38.058;2022-10-04T10:22:24;10.93;;;2.20;;
71125;SDS011;58785;55.566;38.058;2022-10-04T10:25:12;4.60;;;1.67;;
71125;SDS011;58785;55.566;38.058;2022-10-04T10:28:09;5.15;;;1.45;;
71125;SDS011;58785;55.566;38.058;2022-10-04T10:30:50;5.50;;;1.60;;
71125;SDS011;58785;55.566;38.058;2022-10-04T10:36:23;6.30;;;1.80;;
71125;SDS011;58785;55.566;38.058;2022-10-04T10:50:52;5.25;;;1.50;;
71125;SDS011;58785;55.566;38.058;2022-10-04T10:59:03;3.87;;;1.37;;
71125;SDS011;58785;55.566;38.058;2022-10-04T11:21:12;4.80;;;1.65;;
71125;SDS011;58785;55.566;38.058;2022-10-04T11:23:56;5.13;;;1.73;;
71125;SDS011;58785;55.566;38.058;2022-10-04T11:26:36;3.97;;;1.00;;
71125;SDS011;58785;55.566;38.058;2022-10-04T11:39:41;9.63;;;0.77;;
71125;SDS011;58785;55.566;38.058;2022-10-04T11:44:42;6.60;;;1.63;;
71125;SDS011;58785;55.566;38.058;2022-10-04T11:47:34;9.18;;;2.35;;
71125;SDS011;58785;55.566;38.058;2022-10-04T11:50:19;5.90;;;2.72;;
71125;SDS011;58785;55.566;38.058;2022-10-04T11:55:54;6.53;;;2.83;;
71125;SDS011;58785;55.566;38.058;2022-10-04T12:52:19;2.38;;;0.40;;
71125;SDS011;58785;55.566;38.058;2022-10-04T12:55:03;2.50;;;0.50;;
71125;SDS011;58785;55.566;38.058;2022-10-04T12:57:59;2.05;;;0.47;;
71125;SDS011;58785;55.566;38.058;2022-10-04T13:00:34;2.08;;;0.40;;
71125;SDS011;58785;55.566;38.058;2022-10-04T13:28:07;2.55;;;0.50;;
71125;SDS011;58785;55.566;38.058;2022-10-04T13:33:22;4.33;;;0.70;;
71125;SDS011;58785;55.566;38.058;2022-10-04T13:36:05;3.50;;;0.70;;
71125;SDS011;58785;55.566;38.058;2022-10-04T13:38:45;3.00;;;0.70;;
71125;SDS011;58785;55.566;38.058;2022-10-04T13:44:11;3.43;;;0.80;;
71125;SDS011;58785;55.566;38.058;2022-10-04T13:58:30;3.23;;;0.70;;
71125;SDS011;58785;55.566;38.058;2022-10-04T14:01:20;3.05;;;0.60;;
71125;SDS011;58785;55.566;38.058;2022-10-04T14:03:57;2.92;;;0.77;;
71125;SDS011;58785;55.566;38.058;2022-10-04T14:15:19;4.55;;;0.88;;
71125;SDS011;58785;55.566;38.058;2022-10-04T14:35:14;4.93;;;1.40;;
71125;SDS011;58785;55.566;38.058;2022-10-04T14:57:00;4.03;;;1.35;;
71125;SDS011;58785;55.566;38.058;2022-10-04T15:07:51;6.50;;;1.63;;
71125;SDS011;58785;55.566;38.058;2022-10-04T15:11:01;5.60;;;1.65;;
71125;SDS011;58785;55.566;38.058;2022-10-04T15:13:59;6.00;;;1.95;;
71125;SDS011;58785;55.566;38.058;2022-10-04T15:19:26;7.40;;;3.00;;
71125;SDS011;58785;55.566;38.058;2022-10-04T15:28:14;6.78;;;2.50;;
71125;SDS011;58785;55.566;38.058;2022-10-04T15:30:51;5.63;;;1.92;;
71125;SDS011;58785;55.566;38.058;2022-10-04T15:33:40;5.30;;;1.90;;
71125;SDS011;58785;55.566;38.058;2022-10-04T15:37:10;12.10;;;1.70;;
71125;SDS011;58785;55.566;38.058;2022-10-04T15:56:29;5.73;;;1.20;;
71125;SDS011;58785;55.566;38.058;2022-10-04T16:07:52;7.53;;;2.08;;
71125;SDS011;58785;55.566;38.058;2022-10-04T16:10:24;7.47;;;2.10;;
71125;SDS011;58785;55.566;38.058;2022-10-04T16:13:09;7.15;;;2.25;;
71125;SDS011;58785;55.566;38.058;2022-10-04T16:15:42;8.38;;;2.20;;
71125;SDS011;58785;55.566;38.058;2022-10-04T16:32:10;6.00;;;1.55;;
71125;SDS011;58785;55.566;38.058;2022-10-04T16:34:54;6.07;;;1.40;;
71125;SDS011;58785;55.566;38.058;2022-10-04T16:37:37;5.73;;;1.87;;
71125;SDS011;58785;55.566;38.058;2022-10-04T16:45:30;4.60;;;1.55;;
71125;SDS011;58785;55.566;38.058;2022-10-04T16:56:21;7.18;;;2.05;;
71125;SDS011;58785;55.566;38.058;2022-10-04T17:09:38;5.10;;;1.88;;
71125;SDS011;58785;55.566;38.058;2022-10-04T17:15:19;6.10;;;1.60;;
71125;SDS011;58785;55.566;38.058;2022-10-04T17:35:14;9.00;;;2.97;;
71125;SDS011;58785;55.566;38.058;2022-10-04T17:40:35;8.18;;;3.17;;
71125;SDS011;58785;55.566;38.058;2022-10-04T17:43:23;8.77;;;3.75;;
71125;SDS011;58785;55.566;38.058;2022-10-04T17:48:31;7.72;;;3.30;;
71125;SDS011;58785;55.566;38.058;2022-10-04T17:54:13;11.35;;;4.10;;
71125;SDS011;58785;55.566;38.058;2022-10-04T17:57:12;9.20;;;4.00;;
71125;SDS011;58785;55.566;38.058;2022-10-04T18:00:09;9.13;;;3.73;;
71125;SDS011;58785;55.566;38.058;2022-10-04T18:05:20;8.40;;;3.40;;
71125;SDS011;58785;55.566;38.058;2022-10-04T18:10:57;9.25;;;3.33;;
71125;SDS011;58785;55.566;38.058;2022-10-04T18:13:47;8.90;;;4.03;;
71125;SDS011;58785;55.566;38.058;2022-10-04T18:16:29;9.13;;;3.90;;
71125;SDS011;58785;55.566;38.058;2022-10-04T18:22:23;6.80;;;2.97;;
71125;SDS011;58785;55.566;38.058;2022-10-04T18:33:22;7.72;;;2.35;;
71125;SDS011;58785;55.566;38.058;2022-10-04T18:35:59;6.30;;;2.20;;
71125;SDS011;58785;55.566;38.058;2022-10-04T18:38:33;6.30;;;2.00;;
71125;SDS011;58785;55.566;38.058;2022-10-04T18:41:00;5.50;;;2.00;;
71125;SDS011;58785;55.566;38.058;2022-10-04T18:44:02;6.22;;;2.00;;
71125;SDS011;58785;55.566;38.058;2022-10-04T18:46:39;5.30;;;1.50;;
71125;SDS011;58785;55.566;38.058;2022-10-04T18:49:13;6.15;;;1.88;;
71125;SDS011;58785;55.566;38.058;2022-10-04T18:57:28;7.28;;;2.08;;
71125;SDS011;58785;55.566;38.058;2022-10-04T19:00:26;5.38;;;1.83;;
71125;SDS011;58785;55.566;38.058;2022-10-04T19:06:15;4.65;;;1.45;;
71125;SDS011;58785;55.566;38.058;2022-10-04T19:11:42;5.88;;;1.48;;
71125;SDS011;58785;55.566;38.058;2022-10-04T19:19:59;4.30;;;1.30;;
71125;SDS011;58785;55.566;38.058;2022-10-04T19:22:36;5.57;;;1.43;;
71125;SDS011;58785;55.566;38.058;2022-10-04T19:27:56;8.50;;;1.60;;
71125;SDS011;58785;55.566;38.058;2022-10-04T19:30:43;5.80;;;1.35;;
71125;SDS011;58785;55.566;38.058;2022-10-04T19:39:29;8.32;;;1.90;;
71125;SDS011;58785;55.566;38.058;2022-10-04T19:42:32;8.05;;;1.80;;
71125;SDS011;58785;55.566;38.058;2022-10-04T19:47:41;5.13;;;1.50;;
71125;SDS011;58785;55.566;38.058;2022-10-04T19:50:17;6.05;;;1.60;;
71125;SDS011;58785;55.566;38.058;2022-10-04T20:03:40;6.05;;;1.08;;
71125;SDS011;58785;55.566;38.058;2022-10-04T20:06:07;5.93;;;1.20;;
71125;SDS011;58785;55.566;38.058;2022-10-04T20:11:18;3.77;;;1.07;;
71125;SDS011;58785;55.566;38.058;2022-10-04T20:21:55;4.00;;;1.10;;
71125;SDS011;58785;55.566;38.058;2022-10-04T20:34:51;5.23;;;1.30;;
71125;SDS011;58785;55.566;38.058;2022-10-04T20:37:17;5.68;;;1.50;;
71125;SDS011;58785;55.566;38.058;2022-10-04T20:42:09;4.03;;;0.90;;
71125;SDS011;58785;55.566;38.058;2022-10-04T20:52:36;3.70;;;1.10;;
71125;SDS011;58785;55.566;38.058;2022-10-04T20:55:12;3.50;;;1.10;;
71125;SDS011;58785;55.566;38.058;2022-10-04T20:57:44;5.32;;;1.25;;
71125;SDS011;58785;55.566;38.058;2022-10-04T21:00:17;5.88;;;1.02;;
71125;SDS011;58785;55.566;38.058;2022-10-04T21:02:44;5.73;;;1.60;;
71125;SDS011;58785;55.566;38.058;2022-10-04T21:05:13;4.25;;;1.30;;
71125;SDS011;58785;55.566;38.058;2022-10-04T21:07:47;6.72;;;1.50;;
71125;SDS011;58785;55.566;38.058;2022-10-04T21:10:18;3.73;;;1.20;;
71125;SDS011;58785;55.566;38.058;2022-10-04T21:12:44;5.25;;;1.45;;
71125;SDS011;58785;55.566;38.058;2022-10-04T21:17:58;4.20;;;1.23;;
71125;SDS011;58785;55.566;38.058;2022-10-04T21:20:48;7.65;;;1.60;;
71125;SDS011;58785;55.566;38.058;2022-10-04T21:23:33;6.18;;;1.00;;
71125;SDS011;58785;55.566;38.058;2022-10-04T21:28:47;5.30;;;1.00;;
71125;SDS011;58785;55.566;38.058;2022-10-04T21:31:16;4.93;;;1.13;;
71125;SDS011;58785;55.566;38.058;2022-10-04T21:33:42;4.10;;;1.20;;
71125;SDS011;58785;55.566;38.058;2022-10-04T21:36:08;3.57;;;0.83;;
71125;SDS011;58785;55.566;38.058;2022-10-04T21:38:33;8.75;;;1.33;;
71125;SDS011;58785;55.566;38.058;2022-10-04T21:40:59;4.00;;;0.90;;
71125;SDS011;58785;55.566;38.058;2022-10-04T21:43:25;3.72;;;0.98;;
71125;SDS011;58785;55.566;38.058;2022-10-04T21:45:51;6.00;;;1.00;;
71125;SDS011;58785;55.566;38.058;2022-10-04T21:48:16;4.73;;;1.00;;
71125;SDS011;58785;55.566;38.058;2022-10-04T21:50:45;3.60;;;0.80;;
71125;SDS011;58785;55.566;38.058;2022-10-04T21:53:11;4.05;;;1.15;;
71125;SDS011;58785;55.566;38.058;2022-10-04T21:55:37;6.67;;;1.07;;
71125;SDS011;58785;55.566;38.058;2022-10-04T21:58:03;4.47;;;0.88;;
71125;SDS011;58785;55.566;38.058;2022-10-04T22:00:28;4.27;;;1.20;;
71125;SDS011;58785;55.566;38.058;2022-10-04T22:02:54;3.93;;;1.00;;
71125;SDS011;58785;55.566;38.058;2022-10-04T22:05:19;3.90;;;1.00;;
71125;SDS011;58785;55.566;38.058;2022-10-04T22:07:45;5.20;;;1.10;;
71125;SDS011;58785;55.566;38.058;2022-10-04T22:10:11;4.50;;;1.10;;
71125;SDS011;58785;55.566;38.058;2022-10-04T22:12:36;4.70;;;1.27;;
71125;SDS011;58785;55.566;38.058;2022-10-04T22:15:02;5.13;;;1.40;;
71125;SDS011;58785;55.566;38.058;2022-10-04T22:17:29;3.75;;;1.10;;
71125;SDS011;58785;55.566;38.058;2022-10-04T22:19:54;6.88;;;1.30;;
71125;SDS011;58785;55.566;38.058;2022-10-04T22:22:20;5.47;;;1.10;;
71125;SDS011;58785;55.566;38.058;2022-10-04T22:24:46;5.47;;;1.00;;
71125;SDS011;58785;55.566;38.058;2022-10-04T22:27:12;4.20;;;1.07;;
71125;SDS011;58785;55.566;38.058;2022-10-04T22:29:39;6.68;;;1.42;;
71125;SDS011;58785;55.566;38.058;2022-10-04T22:32:10;6.45;;;1.50;;
71125;SDS011;58785;55.566;38.058;2022-10-04T22:34:41;4.67;;;0.97;;
71125;SDS011;58785;55.566;38.058;2022-10-04T22:37:09;7.25;;;1.20;;
71125;SDS011;58785;55.566;38.058;2022-10-04T22:39:35;5.57;;;1.30;;
71125;SDS011;58785;55.566;38.058;2022-10-04T22:42:01;5.87;;;1.10;;
71125;SDS011;58785;55.566;38.058;2022-10-04T22:44:29;5.65;;;1.00;;
71125;SDS011;58785;55.566;38.058;2022-10-04T22:46:59;5.32;;;1.20;;
71125;SDS011;58785;55.566;38.058;2022-10-04T22:49:27;4.82;;;1.27;;
71125;SDS011;58785;55.566;38.058;2022-10-04T22:51:55;7.67;;;1.83;;
71125;SDS011;58785;55.566;38.058;2022-10-04T22:54:23;5.50;;;0.90;;
71125;SDS011;58785;55.566;38.058;2022-10-04T22:56:51;5.13;;;1.00;;
71125;SDS011;58785;55.566;38.058;2022-10-04T22:59:18;4.07;;;1.17;;
71125;SDS011;58785;55.566;38.058;2022-10-04T23:01:45;3.75;;;0.88;;
71125;SDS011;58785;55.566;38.058;2022-10-04T23:04:14;5.17;;;1.07;;
71125;SDS011;58785;55.566;38.058;2022-10-04T23:06:44;3.53;;;0.85;;
71125;SDS011;58785;55.566;38.058;2022-10-04T23:09:10;3.70;;;0.80;;
71125;SDS011;58785;55.566;38.058;2022-10-04T23:11:35;3.30;;;0.90;;
71125;SDS011;58785;55.566;38.058;2022-10-04T23:14:01;3.83;;;1.00;;
71125;SDS011;58785;55.566;38.058;2022-10-04T23:16:26;4.30;;;1.00;;
71125;SDS011;58785;55.566;38.058;2022-10-04T23:18:57;3.60;;;1.00;;
71125;SDS011;58785;55.566;38.058;2022-10-04T23:21:29;3.35;;;0.88;;
71125;SDS011;58785;55.566;38.058;2022-10-04T23:23:58;4.05;;;0.90;;
71125;SDS011;58785;55.566;38.058;2022-10-04T23:26:31;4.28;;;1.08;;
71125;SDS011;58785;55.566;38.058;2022-10-04T23:29:01;3.23;;;0.73;;
71125;SDS011;58785;55.566;38.058;2022-10-04T23:31:31;3.17;;;0.63;;
71125;SDS011;58785;55.566;38.058;2022-10-04T23:33:59;3.78;;;1.00;;
71125;SDS011;58785;55.566;38.058;2022-10-04T23:36:25;5.07;;;1.43;;
71125;SDS011;58785;55.566;38.058;2022-10-04T23:38:53;3.88;;;1.00;;
71125;SDS011;58785;55.566;38.058;2022-10-04T23:41:23;5.25;;;1.20;;
71125;SDS011;58785;55.566;38.058;2022-10-04T23:43:49;4.57;;;1.33;;
71125;SDS011;58785;55.566;38.058;2022-10-04T23:46:17;5.13;;;1.60;;
71125;SDS011;58785;55.566;38.058;2022-10-04T23:48:46;6.55;;;1.42;;
71125;SDS011;58785;55.566;38.058;2022-10-04T23:51:14;5.65;;;1.42;;
71125;SDS011;58785;55.566;38.058;2022-10-04T23:53:42;6.32;;;1.83;;
71125;SDS011;58785;55.566;38.058;2022-10-04T23:56:16;7.97;;;1.90;;
71125;SDS011;58785;55.566;38.058;2022-10-04T23:58:45;7.82;;;1.75;;
